sensor_id;sensor_type;location;lat;lon;timestamp;P1;durP1;ratioP1;P2;durP2;ratioP2
34900;SDS011;21112;51.976;5.660;2023-03-04T09:23:47;2.03;;;0.77;;
34900;SDS011;21112;51.976;5.660;2023-03-04T09:26:18;3.50;;;1.15;;
34900;SDS011;21112;51.976;5.660;2023-03-04T09:28:50;2.22;;;1.02;;
34900;SDS011;21112;51.976;5.660;2023-03-04T09:31:23;2.63;;;0.93;;
34900;SDS011;21112;51.976;5.660;2023-03-04T09:33:52;2.50;;;0.88;;
34900;SDS011;21112;51.976;5.660;2023-03-04T09:36:29;3.17;;;0.95;;
34900;SDS011;21112;51.976;5.660;2023-03-04T09:39:09;3.45;;;0.82;;
34900;SDS011;21112;51.976;5.660;2023-03-04T09:41:36;3.13;;;0.98;;
34900;SDS011;21112;51.976;5.660;2023-03-04T09:44:12;2.70;;;1.20;;
34900;SDS011;21112;51.976;5.660;2023-03-04T09:46:42;6.18;;;1.05;;
34900;SDS011;21112;51.976;5.660;2023-03-04T09:51:42;2.70;;;0.70;;
34900;SDS011;21112;51.976;5.660;2023-03-04T09:54:13;3.33;;;1.05;;
34900;SDS011;21112;51.976;5.660;2023-03-04T09:56:42;2.72;;;0.80;;
34900;SDS011;21112;51.976;5.660;2023-03-04T09:59:15;3.53;;;1.20;;
34900;SDS011;21112;51.976;5.660;2023-03-04T10:01:44;2.42;;;0.80;;
34900;SDS011;21112;51.976;5.660;2023-03-04T10:04:14;4.55;;;1.23;;
34900;SDS011;21112;51.976;5.660;2023-03-04T10:06:56;4.25;;;0.93;;
34900;SDS011;21112;51.976;5.660;2023-03-04T10:09:31;5.60;;;1.00;;
34900;SDS011;21112;51.976;5.660;2023-03-04T10:12:01;1.52;;;0.80;;
34900;SDS011;21112;51.976;5.660;2023-03-04T10:14:32;2.42;;;0.80;;
34900;SDS011;21112;51.976;5.660;2023-03-04T10:17:04;2.40;;;0.90;;
34900;SDS011;21112;51.976;5.660;2023-03-04T10:19:50;3.03;;;0.90;;
34900;SDS011;21112;51.976;5.660;2023-03-04T10:22:19;2.17;;;0.80;;
34900;SDS011;21112;51.976;5.660;2023-03-04T10:24:51;2.42;;;0.70;;
34900;SDS011;21112;51.976;5.660;2023-03-04T10:27:23;1.98;;;0.70;;
34900;SDS011;21112;51.976;5.660;2023-03-04T10:29:50;3.33;;;0.57;;
34900;SDS011;21112;51.976;5.660;2023-03-04T10:32:17;4.78;;;0.75;;
34900;SDS011;21112;51.976;5.660;2023-03-04T10:34:44;1.73;;;0.68;;
34900;SDS011;21112;51.976;5.660;2023-03-04T10:37:12;5.63;;;0.85;;
34900;SDS011;21112;51.976;5.660;2023-03-04T10:39:43;4.15;;;0.90;;
34900;SDS011;21112;51.976;5.660;2023-03-04T10:42:25;0.98;;;0.60;;
34900;SDS011;21112;51.976;5.660;2023-03-04T10:45:01;2.35;;;0.90;;
34900;SDS011;21112;51.976;5.660;2023-03-04T10:47:39;2.05;;;0.93;;
34900;SDS011;21112;51.976;5.660;2023-03-04T10:50:15;2.15;;;0.88;;
34900;SDS011;21112;51.976;5.660;2023-03-04T10:52:48;4.53;;;1.20;;
34900;SDS011;21112;51.976;5.660;2023-03-04T10:55:19;1.25;;;0.75;;
34900;SDS011;21112;51.976;5.660;2023-03-04T10:57:56;4.50;;;0.80;;
34900;SDS011;21112;51.976;5.660;2023-03-04T11:00:28;1.40;;;0.65;;
34900;SDS011;21112;51.976;5.660;2023-03-04T11:05:41;4.25;;;1.45;;
34900;SDS011;21112;51.976;5.660;2023-03-04T11:08:14;2.45;;;0.70;;
34900;SDS011;21112;51.976;5.660;2023-03-04T11:10:43;1.45;;;0.70;;
34900;SDS011;21112;51.976;5.660;2023-03-04T11:13:14;2.22;;;0.60;;
34900;SDS011;21112;51.976;5.660;2023-03-04T11:15:49;2.13;;;1.00;;
34900;SDS011;21112;51.976;5.660;2023-03-04T11:18:16;2.70;;;0.95;;
34900;SDS011;21112;51.976;5.660;2023-03-04T11:20:47;0.90;;;0.60;;
34900;SDS011;21112;51.976;5.660;2023-03-04T11:23:16;1.98;;;0.80;;
34900;SDS011;21112;51.976;5.660;2023-03-04T11:25:43;2.72;;;0.68;;
34900;SDS011;21112;51.976;5.660;2023-03-04T11:28:16;1.85;;;0.82;;
34900;SDS011;21112;51.976;5.660;2023-03-04T11:30:47;2.53;;;0.98;;
34900;SDS011;21112;51.976;5.660;2023-03-04T11:33:21;3.33;;;0.88;;
34900;SDS011;21112;51.976;5.660;2023-03-04T11:35:55;2.97;;;0.80;;
34900;SDS011;21112;51.976;5.660;2023-03-04T11:38:26;4.22;;;1.10;;
34900;SDS011;21112;51.976;5.660;2023-03-04T11:40:59;4.15;;;1.10;;
34900;SDS011;21112;51.976;5.660;2023-03-04T11:43:33;3.33;;;0.77;;
34900;SDS011;21112;51.976;5.660;2023-03-04T11:46:04;1.92;;;1.05;;
34900;SDS011;21112;51.976;5.660;2023-03-04T11:48:41;1.80;;;0.75;;
34900;SDS011;21112;51.976;5.660;2023-03-04T11:51:16;1.88;;;0.80;;
34900;SDS011;21112;51.976;5.660;2023-03-04T11:53:48;4.78;;;0.98;;
34900;SDS011;21112;51.976;5.660;2023-03-04T11:56:23;2.15;;;0.82;;
34900;SDS011;21112;51.976;5.660;2023-03-04T12:01:45;1.97;;;0.80;;
34900;SDS011;21112;51.976;5.660;2023-03-04T12:04:22;2.55;;;0.90;;
34900;SDS011;21112;51.976;5.660;2023-03-04T12:07:07;2.25;;;1.10;;
34900;SDS011;21112;51.976;5.660;2023-03-04T12:09:59;3.75;;;0.90;;
34900;SDS011;21112;51.976;5.660;2023-03-04T12:12:34;2.45;;;0.88;;
34900;SDS011;21112;51.976;5.660;2023-03-04T12:15:12;2.08;;;1.05;;
34900;SDS011;21112;51.976;5.660;2023-03-04T12:17:59;3.73;;;1.00;;
34900;SDS011;21112;51.976;5.660;2023-03-04T12:20:50;4.30;;;0.90;;
34900;SDS011;21112;51.976;5.660;2023-03-04T12:24:09;1.65;;;0.88;;
34900;SDS011;21112;51.976;5.660;2023-03-04T12:26:37;3.15;;;1.00;;
34900;SDS011;21112;51.976;5.660;2023-03-04T12:29:27;4.13;;;1.10;;
34900;SDS011;21112;51.976;5.660;2023-03-04T12:32:20;5.18;;;1.45;;
34900;SDS011;21112;51.976;5.660;2023-03-04T13:01:08;4.45;;;0.90;;
34900;SDS011;21112;51.976;5.660;2023-03-04T13:03:43;6.20;;;0.90;;
34900;SDS011;21112;51.976;5.660;2023-03-04T13:06:24;2.92;;;0.95;;
34900;SDS011;21112;51.976;5.660;2023-03-04T13:08:59;3.55;;;0.90;;
34900;SDS011;21112;51.976;5.660;2023-03-04T13:11:43;2.75;;;0.80;;
34900;SDS011;21112;51.976;5.660;2023-03-04T13:14:25;3.97;;;0.73;;
34900;SDS011;21112;51.976;5.660;2023-03-04T13:17:17;1.30;;;0.60;;
34900;SDS011;21112;51.976;5.660;2023-03-04T13:19:55;5.40;;;0.82;;
34900;SDS011;21112;51.976;5.660;2023-03-04T13:22:41;4.38;;;1.02;;
34900;SDS011;21112;51.976;5.660;2023-03-04T13:28:18;11.88;;;1.98;;
34900;SDS011;21112;51.976;5.660;2023-03-04T13:31:05;4.35;;;1.65;;
34900;SDS011;21112;51.976;5.660;2023-03-04T13:39:37;2.90;;;1.02;;
34900;SDS011;21112;51.976;5.660;2023-03-04T13:45:02;4.03;;;1.10;;
34900;SDS011;21112;51.976;5.660;2023-03-04T13:47:44;2.33;;;0.60;;
34900;SDS011;21112;51.976;5.660;2023-03-04T13:50:28;3.38;;;1.10;;
34900;SDS011;21112;51.976;5.660;2023-03-04T13:58:36;3.13;;;0.73;;
34900;SDS011;21112;51.976;5.660;2023-03-04T14:01:04;5.82;;;0.90;;
34900;SDS011;21112;51.976;5.660;2023-03-04T14:03:35;6.75;;;0.70;;
34900;SDS011;21112;51.976;5.660;2023-03-04T14:24:16;3.95;;;0.70;;
34900;SDS011;21112;51.976;5.660;2023-03-04T14:26:43;3.45;;;1.02;;
34900;SDS011;21112;51.976;5.660;2023-03-04T14:29:21;3.42;;;0.73;;
34900;SDS011;21112;51.976;5.660;2023-03-04T14:31:50;4.85;;;0.80;;
34900;SDS011;21112;51.976;5.660;2023-03-04T14:34:23;3.85;;;0.82;;
34900;SDS011;21112;51.976;5.660;2023-03-04T14:37:00;1.58;;;0.75;;
34900;SDS011;21112;51.976;5.660;2023-03-04T14:39:31;4.38;;;1.05;;
34900;SDS011;21112;51.976;5.660;2023-03-04T14:42:18;4.90;;;0.77;;
34900;SDS011;21112;51.976;5.660;2023-03-04T14:44:57;4.40;;;0.82;;
34900;SDS011;21112;51.976;5.660;2023-03-04T14:47:27;1.90;;;0.80;;
34900;SDS011;21112;51.976;5.660;2023-03-04T14:50:09;5.65;;;1.13;;
34900;SDS011;21112;51.976;5.660;2023-03-04T14:52:39;2.20;;;0.70;;
34900;SDS011;21112;51.976;5.660;2023-03-04T15:00:28;2.38;;;0.60;;
34900;SDS011;21112;51.976;5.660;2023-03-04T15:02:58;1.00;;;0.55;;
34900;SDS011;21112;51.976;5.660;2023-03-04T15:05:29;3.20;;;0.55;;
34900;SDS011;21112;51.976;5.660;2023-03-04T15:07:57;3.00;;;0.80;;
34900;SDS011;21112;51.976;5.660;2023-03-04T15:10:25;4.40;;;0.77;;
34900;SDS011;21112;51.976;5.660;2023-03-04T15:12:52;3.00;;;0.63;;
34900;SDS011;21112;51.976;5.660;2023-03-04T15:15:37;2.13;;;0.57;;
34900;SDS011;21112;51.976;5.660;2023-03-04T15:18:15;3.17;;;0.60;;
34900;SDS011;21112;51.976;5.660;2023-03-04T15:20:51;2.67;;;0.80;;
34900;SDS011;21112;51.976;5.660;2023-03-04T15:23:17;4.10;;;0.68;;
34900;SDS011;21112;51.976;5.660;2023-03-04T15:25:44;3.03;;;0.75;;
34900;SDS011;21112;51.976;5.660;2023-03-04T15:28:11;3.15;;;0.70;;
34900;SDS011;21112;51.976;5.660;2023-03-04T15:30:42;2.50;;;0.63;;
34900;SDS011;21112;51.976;5.660;2023-03-04T15:33:09;1.70;;;0.75;;
34900;SDS011;21112;51.976;5.660;2023-03-04T15:35:36;5.28;;;0.85;;
34900;SDS011;21112;51.976;5.660;2023-03-04T15:38:03;1.80;;;0.73;;
34900;SDS011;21112;51.976;5.660;2023-03-04T15:40:32;3.30;;;0.60;;
34900;SDS011;21112;51.976;5.660;2023-03-04T15:43:00;1.52;;;0.40;;
34900;SDS011;21112;51.976;5.660;2023-03-04T15:45:32;2.00;;;0.45;;
34900;SDS011;21112;51.976;5.660;2023-03-04T15:48:05;1.77;;;0.52;;
34900;SDS011;21112;51.976;5.660;2023-03-04T15:50:32;1.25;;;0.52;;
34900;SDS011;21112;51.976;5.660;2023-03-04T15:53:08;4.72;;;0.88;;
34900;SDS011;21112;51.976;5.660;2023-03-04T15:55:35;3.22;;;0.80;;
34900;SDS011;21112;51.976;5.660;2023-03-04T15:58:02;3.30;;;0.77;;
34900;SDS011;21112;51.976;5.660;2023-03-04T16:00:29;3.40;;;0.70;;
34900;SDS011;21112;51.976;5.660;2023-03-04T16:02:56;1.50;;;0.63;;
34900;SDS011;21112;51.976;5.660;2023-03-04T16:05:27;1.92;;;0.45;;
34900;SDS011;21112;51.976;5.660;2023-03-04T16:07:55;3.08;;;0.77;;
34900;SDS011;21112;51.976;5.660;2023-03-04T16:10:27;3.80;;;0.77;;
34900;SDS011;21112;51.976;5.660;2023-03-04T16:12:55;3.45;;;0.63;;
34900;SDS011;21112;51.976;5.660;2023-03-04T16:15:22;6.28;;;0.93;;
34900;SDS011;21112;51.976;5.660;2023-03-04T16:17:49;1.58;;;0.88;;
34900;SDS011;21112;51.976;5.660;2023-03-04T16:20:17;4.57;;;0.73;;
34900;SDS011;21112;51.976;5.660;2023-03-04T16:22:48;1.73;;;0.60;;
34900;SDS011;21112;51.976;5.660;2023-03-04T16:25:18;2.33;;;0.90;;
34900;SDS011;21112;51.976;5.660;2023-03-04T16:27:50;2.13;;;0.73;;
34900;SDS011;21112;51.976;5.660;2023-03-04T16:30:25;4.93;;;0.88;;
34900;SDS011;21112;51.976;5.660;2023-03-04T16:32:52;3.80;;;0.70;;
34900;SDS011;21112;51.976;5.660;2023-03-04T16:35:20;2.03;;;0.70;;
34900;SDS011;21112;51.976;5.660;2023-03-04T16:37:51;4.78;;;0.77;;
34900;SDS011;21112;51.976;5.660;2023-03-04T16:40:21;2.33;;;0.82;;
34900;SDS011;21112;51.976;5.660;2023-03-04T16:42:49;2.75;;;0.93;;
34900;SDS011;21112;51.976;5.660;2023-03-04T16:45:16;1.27;;;0.52;;
34900;SDS011;21112;51.976;5.660;2023-03-04T16:47:45;1.63;;;0.63;;
34900;SDS011;21112;51.976;5.660;2023-03-04T16:50:12;5.30;;;0.70;;
34900;SDS011;21112;51.976;5.660;2023-03-04T16:52:44;2.80;;;0.85;;
34900;SDS011;21112;51.976;5.660;2023-03-04T16:55:14;1.67;;;0.70;;
34900;SDS011;21112;51.976;5.660;2023-03-04T16:57:43;5.40;;;0.68;;
34900;SDS011;21112;51.976;5.660;2023-03-04T17:00:15;3.25;;;1.00;;
34900;SDS011;21112;51.976;5.660;2023-03-04T17:02:41;3.28;;;0.85;;
34900;SDS011;21112;51.976;5.660;2023-03-04T17:05:09;3.03;;;1.10;;
34900;SDS011;21112;51.976;5.660;2023-03-04T17:07:36;5.72;;;1.08;;
34900;SDS011;21112;51.976;5.660;2023-03-04T17:10:04;6.43;;;1.02;;
34900;SDS011;21112;51.976;5.660;2023-03-04T17:12:33;2.80;;;1.10;;
34900;SDS011;21112;51.976;5.660;2023-03-04T17:14:59;5.05;;;1.08;;
34900;SDS011;21112;51.976;5.660;2023-03-04T17:17:30;3.83;;;1.02;;
34900;SDS011;21112;51.976;5.660;2023-03-04T17:19:57;4.50;;;0.80;;
34900;SDS011;21112;51.976;5.660;2023-03-04T17:22:27;3.70;;;0.90;;
34900;SDS011;21112;51.976;5.660;2023-03-04T17:24:53;4.75;;;0.85;;
34900;SDS011;21112;51.976;5.660;2023-03-04T17:27:20;0.95;;;0.60;;
34900;SDS011;21112;51.976;5.660;2023-03-04T17:29:52;3.22;;;0.73;;
34900;SDS011;21112;51.976;5.660;2023-03-04T17:32:19;2.33;;;0.70;;
34900;SDS011;21112;51.976;5.660;2023-03-04T17:34:46;6.97;;;0.95;;
34900;SDS011;21112;51.976;5.660;2023-03-04T17:37:13;2.53;;;0.60;;
34900;SDS011;21112;51.976;5.660;2023-03-04T17:39:42;0.93;;;0.55;;
34900;SDS011;21112;51.976;5.660;2023-03-04T17:42:10;3.60;;;1.00;;
34900;SDS011;21112;51.976;5.660;2023-03-04T17:49:50;3.22;;;1.00;;
34900;SDS011;21112;51.976;5.660;2023-03-04T17:52:17;8.00;;;1.38;;
34900;SDS011;21112;51.976;5.660;2023-03-04T17:54:45;4.20;;;0.90;;
34900;SDS011;21112;51.976;5.660;2023-03-04T17:57:13;5.85;;;1.20;;
34900;SDS011;21112;51.976;5.660;2023-03-04T17:59:40;4.60;;;1.10;;
34900;SDS011;21112;51.976;5.660;2023-03-04T18:02:11;4.60;;;0.90;;
34900;SDS011;21112;51.976;5.660;2023-03-04T18:04:38;6.05;;;1.08;;
34900;SDS011;21112;51.976;5.660;2023-03-04T18:07:07;4.35;;;1.00;;
34900;SDS011;21112;51.976;5.660;2023-03-04T18:09:35;4.07;;;0.88;;
34900;SDS011;21112;51.976;5.660;2023-03-04T18:12:02;2.20;;;0.70;;
34900;SDS011;21112;51.976;5.660;2023-03-04T18:14:28;5.40;;;1.23;;
34900;SDS011;21112;51.976;5.660;2023-03-04T18:16:55;3.97;;;1.00;;
34900;SDS011;21112;51.976;5.660;2023-03-04T18:19:22;4.28;;;1.20;;
34900;SDS011;21112;51.976;5.660;2023-03-04T18:21:48;5.47;;;1.00;;
34900;SDS011;21112;51.976;5.660;2023-03-04T18:24:16;1.50;;;0.73;;
34900;SDS011;21112;51.976;5.660;2023-03-04T18:26:45;6.38;;;1.00;;
34900;SDS011;21112;51.976;5.660;2023-03-04T18:29:14;6.53;;;1.15;;
34900;SDS011;21112;51.976;5.660;2023-03-04T18:31:45;5.10;;;1.10;;
34900;SDS011;21112;51.976;5.660;2023-03-04T18:34:12;7.07;;;0.90;;
34900;SDS011;21112;51.976;5.660;2023-03-04T18:36:39;6.97;;;1.25;;
34900;SDS011;21112;51.976;5.660;2023-03-04T18:39:08;3.80;;;1.00;;
34900;SDS011;21112;51.976;5.660;2023-03-04T18:41:39;5.32;;;1.02;;
34900;SDS011;21112;51.976;5.660;2023-03-04T18:44:06;3.55;;;0.93;;
34900;SDS011;21112;51.976;5.660;2023-03-04T18:46:38;4.63;;;1.17;;
34900;SDS011;21112;51.976;5.660;2023-03-04T18:49:06;3.20;;;1.10;;
34900;SDS011;21112;51.976;5.660;2023-03-04T18:51:34;4.75;;;1.10;;
34900;SDS011;21112;51.976;5.660;2023-03-04T18:54:00;4.00;;;1.00;;
34900;SDS011;21112;51.976;5.660;2023-03-04T18:56:52;4.43;;;0.90;;
34900;SDS011;21112;51.976;5.660;2023-03-04T18:59:31;5.38;;;1.10;;
34900;SDS011;21112;51.976;5.660;2023-03-04T19:02:11;6.03;;;1.27;;
34900;SDS011;21112;51.976;5.660;2023-03-04T19:04:43;4.68;;;1.00;;
34900;SDS011;21112;51.976;5.660;2023-03-04T19:07:12;3.90;;;1.10;;
34900;SDS011;21112;51.976;5.660;2023-03-04T19:09:53;4.30;;;0.85;;
34900;SDS011;21112;51.976;5.660;2023-03-04T19:12:40;7.63;;;1.20;;
34900;SDS011;21112;51.976;5.660;2023-03-04T19:15:09;6.43;;;1.05;;
34900;SDS011;21112;51.976;5.660;2023-03-04T19:17:36;7.72;;;1.73;;
34900;SDS011;21112;51.976;5.660;2023-03-04T19:22:53;5.30;;;0.90;;
34900;SDS011;21112;51.976;5.660;2023-03-04T19:25:22;5.93;;;1.15;;
34900;SDS011;21112;51.976;5.660;2023-03-04T19:27:59;3.67;;;0.80;;
34900;SDS011;21112;51.976;5.660;2023-03-04T19:30:47;7.25;;;0.77;;
34900;SDS011;21112;51.976;5.660;2023-03-04T19:33:17;4.93;;;0.90;;
34900;SDS011;21112;51.976;5.660;2023-03-04T19:35:43;4.53;;;0.98;;
34900;SDS011;21112;51.976;5.660;2023-03-04T19:38:13;4.97;;;1.10;;
34900;SDS011;21112;51.976;5.660;2023-03-04T19:40:41;7.75;;;1.10;;
34900;SDS011;21112;51.976;5.660;2023-03-04T19:43:19;8.90;;;1.20;;
34900;SDS011;21112;51.976;5.660;2023-03-04T19:48:15;3.60;;;0.60;;
34900;SDS011;21112;51.976;5.660;2023-03-04T19:50:43;4.00;;;1.08;;
34900;SDS011;21112;51.976;5.660;2023-03-04T19:53:11;4.15;;;1.17;;
34900;SDS011;21112;51.976;5.660;2023-03-04T19:55:46;5.40;;;1.00;;
34900;SDS011;21112;51.976;5.660;2023-03-04T19:58:19;3.70;;;1.33;;
34900;SDS011;21112;51.976;5.660;2023-03-04T20:00:52;6.25;;;1.42;;
34900;SDS011;21112;51.976;5.660;2023-03-04T20:03:21;4.72;;;1.20;;
34900;SDS011;21112;51.976;5.660;2023-03-04T20:05:50;4.78;;;1.00;;
34900;SDS011;21112;51.976;5.660;2023-03-04T20:08:20;2.92;;;0.88;;
34900;SDS011;21112;51.976;5.660;2023-03-04T20:10:46;5.00;;;1.10;;
34900;SDS011;21112;51.976;5.660;2023-03-04T20:16:15;8.13;;;1.52;;
34900;SDS011;21112;51.976;5.660;2023-03-04T20:21:22;6.25;;;1.10;;
34900;SDS011;21112;51.976;5.660;2023-03-04T20:23:52;3.45;;;1.10;;
34900;SDS011;21112;51.976;5.660;2023-03-04T20:26:27;3.47;;;1.15;;
34900;SDS011;21112;51.976;5.660;2023-03-04T20:28:56;3.75;;;1.15;;
34900;SDS011;21112;51.976;5.660;2023-03-04T20:31:39;4.00;;;1.00;;
34900;SDS011;21112;51.976;5.660;2023-03-04T20:34:11;3.83;;;1.02;;
34900;SDS011;21112;51.976;5.660;2023-03-04T20:36:38;3.08;;;1.23;;
34900;SDS011;21112;51.976;5.660;2023-03-04T20:39:09;6.22;;;1.73;;
34900;SDS011;21112;51.976;5.660;2023-03-04T20:41:40;11.82;;;1.30;;
34900;SDS011;21112;51.976;5.660;2023-03-04T20:44:13;4.68;;;1.30;;
34900;SDS011;21112;51.976;5.660;2023-03-04T20:46:45;6.07;;;1.50;;
34900;SDS011;21112;51.976;5.660;2023-03-04T20:49:16;3.00;;;1.15;;
34900;SDS011;21112;51.976;5.660;2023-03-04T20:51:52;5.05;;;1.30;;
34900;SDS011;21112;51.976;5.660;2023-03-04T20:54:30;4.32;;;1.50;;
34900;SDS011;21112;51.976;5.660;2023-03-04T20:57:00;4.18;;;1.35;;
34900;SDS011;21112;51.976;5.660;2023-03-04T20:59:34;5.50;;;1.30;;
34900;SDS011;21112;51.976;5.660;2023-03-04T21:18:05;3.38;;;1.23;;
34900;SDS011;21112;51.976;5.660;2023-03-04T21:20:35;4.75;;;1.10;;
34900;SDS011;21112;51.976;5.660;2023-03-04T21:23:03;4.57;;;1.20;;
34900;SDS011;21112;51.976;5.660;2023-03-04T21:28:01;5.88;;;1.35;;
34900;SDS011;21112;51.976;5.660;2023-03-04T21:38:28;4.70;;;1.52;;
34900;SDS011;21112;51.976;5.660;2023-03-04T21:40:55;5.28;;;1.08;;
34900;SDS011;21112;51.976;5.660;2023-03-04T21:43:22;6.90;;;1.50;;
34900;SDS011;21112;51.976;5.660;2023-03-04T21:45:52;5.07;;;1.55;;
34900;SDS011;21112;51.976;5.660;2023-03-04T21:48:19;4.53;;;1.50;;
34900;SDS011;21112;51.976;5.660;2023-03-04T21:50:46;4.13;;;1.10;;
34900;SDS011;21112;51.976;5.660;2023-03-04T21:53:13;5.10;;;1.38;;
34900;SDS011;21112;51.976;5.660;2023-03-04T21:55:46;5.20;;;1.60;;
34900;SDS011;21112;51.976;5.660;2023-03-04T21:58:13;7.22;;;1.58;;
34900;SDS011;21112;51.976;5.660;2023-03-04T22:00:40;3.58;;;1.27;;
34900;SDS011;21112;51.976;5.660;2023-03-04T22:03:07;1.83;;;1.00;;
34900;SDS011;21112;51.976;5.660;2023-03-04T22:05:37;4.97;;;1.17;;
34900;SDS011;21112;51.976;5.660;2023-03-04T22:08:04;5.03;;;1.23;;
34900;SDS011;21112;51.976;5.660;2023-03-04T22:10:31;3.58;;;1.45;;
34900;SDS011;21112;51.976;5.660;2023-03-04T22:13:00;7.55;;;1.50;;
34900;SDS011;21112;51.976;5.660;2023-03-04T22:15:33;5.35;;;1.25;;
34900;SDS011;21112;51.976;5.660;2023-03-04T22:18:00;2.58;;;1.10;;
34900;SDS011;21112;51.976;5.660;2023-03-04T22:20:27;2.00;;;0.90;;
34900;SDS011;21112;51.976;5.660;2023-03-04T22:27:45;2.72;;;0.90;;
34900;SDS011;21112;51.976;5.660;2023-03-04T22:32:38;5.70;;;1.10;;
34900;SDS011;21112;51.976;5.660;2023-03-04T22:35:05;3.78;;;1.33;;
34900;SDS011;21112;51.976;5.660;2023-03-04T22:37:34;5.05;;;1.60;;
34900;SDS011;21112;51.976;5.660;2023-03-04T22:40:00;6.53;;;1.52;;
34900;SDS011;21112;51.976;5.660;2023-03-04T22:42:27;2.83;;;1.05;;
34900;SDS011;21112;51.976;5.660;2023-03-04T22:44:53;6.70;;;1.80;;
34900;SDS011;21112;51.976;5.660;2023-03-04T22:47:20;3.70;;;1.17;;
34900;SDS011;21112;51.976;5.660;2023-03-04T22:49:48;3.13;;;1.17;;
34900;SDS011;21112;51.976;5.660;2023-03-04T22:52:15;5.38;;;1.70;;
34900;SDS011;21112;51.976;5.660;2023-03-04T22:54:42;5.00;;;1.30;;
34900;SDS011;21112;51.976;5.660;2023-03-04T22:57:09;4.65;;;1.27;;
34900;SDS011;21112;51.976;5.660;2023-03-04T23:02:04;3.58;;;1.13;;
34900;SDS011;21112;51.976;5.660;2023-03-04T23:04:30;6.18;;;1.40;;
34900;SDS011;21112;51.976;5.660;2023-03-04T23:06:59;3.50;;;1.13;;
34900;SDS011;21112;51.976;5.660;2023-03-04T23:09:26;2.85;;;1.10;;
34900;SDS011;21112;51.976;5.660;2023-03-04T23:12:28;3.42;;;1.23;;
34900;SDS011;21112;51.976;5.660;2023-03-04T23:14:54;3.28;;;1.02;;
34900;SDS011;21112;51.976;5.660;2023-03-04T23:17:25;6.68;;;1.60;;
34900;SDS011;21112;51.976;5.660;2023-03-04T23:19:52;3.42;;;1.20;;
34900;SDS011;21112;51.976;5.660;2023-03-04T23:25:40;4.45;;;1.35;;
34900;SDS011;21112;51.976;5.660;2023-03-04T23:28:07;6.03;;;1.33;;
34900;SDS011;21112;51.976;5.660;2023-03-04T23:30:34;3.72;;;1.25;;
34900;SDS011;21112;51.976;5.660;2023-03-04T23:33:01;4.72;;;1.25;;
34900;SDS011;21112;51.976;5.660;2023-03-04T23:35:30;5.32;;;1.33;;
34900;SDS011;21112;51.976;5.660;2023-03-04T23:37:56;4.32;;;1.95;;
34900;SDS011;21112;51.976;5.660;2023-03-04T23:40:23;5.20;;;1.48;;
34900;SDS011;21112;51.976;5.660;2023-03-04T23:42:51;4.82;;;1.33;;
34900;SDS011;21112;51.976;5.660;2023-03-04T23:45:18;5.72;;;1.65;;
34900;SDS011;21112;51.976;5.660;2023-03-04T23:47:45;5.90;;;1.50;;
34900;SDS011;21112;51.976;5.660;2023-03-04T23:50:11;6.38;;;1.65;;
34900;SDS011;21112;51.976;5.660;2023-03-04T23:52:40;6.60;;;1.23;;
34900;SDS011;21112;51.976;5.660;2023-03-04T23:55:08;4.63;;;1.30;;
34900;SDS011;21112;51.976;5.660;2023-03-04T23:57:48;5.95;;;1.45;;
